sensor_id;sensor_type;location;lat;lon;timestamp;P1;durP1;ratioP1;P2;durP2;ratioP2
60610;SDS011;46439;51.164;13.572;2023-05-07T00:00:45;14.60;;;10.80;;
60610;SDS011;46439;51.164;13.572;2023-05-07T00:03:14;15.20;;;11.40;;
60610;SDS011;46439;51.164;13.572;2023-05-07T00:05:43;14.50;;;9.90;;
60610;SDS011;46439;51.164;13.572;2023-05-07T00:08:12;17.00;;;11.90;;
60610;SDS011;46439;51.164;13.572;2023-05-07T00:10:40;14.80;;;10.60;;
60610;SDS011;46439;51.164;13.572;2023-05-07T00:13:25;16.80;;;11.50;;
60610;SDS011;46439;51.164;13.572;2023-05-07T00:15:54;16.70;;;11.20;;
60610;SDS011;46439;51.164;13.572;2023-05-07T00:18:22;14.80;;;9.50;;
60610;SDS011;46439;51.164;13.572;2023-05-07T00:20:50;17.70;;;10.60;;
60610;SDS011;46439;51.164;13.572;2023-05-07T00:23:19;14.70;;;9.70;;
60610;SDS011;46439;51.164;13.572;2023-05-07T00:25:48;15.10;;;10.60;;
60610;SDS011;46439;51.164;13.572;2023-05-07T00:28:16;18.40;;;11.60;;
60610;SDS011;46439;51.164;13.572;2023-05-07T00:30:45;12.10;;;8.90;;
60610;SDS011;46439;51.164;13.572;2023-05-07T00:33:13;13.30;;;9.20;;
60610;SDS011;46439;51.164;13.572;2023-05-07T00:35:42;15.50;;;12.00;;
60610;SDS011;46439;51.164;13.572;2023-05-07T00:38:11;13.30;;;8.80;;
60610;SDS011;46439;51.164;13.572;2023-05-07T00:40:39;14.80;;;10.60;;
60610;SDS011;46439;51.164;13.572;2023-05-07T00:43:08;12.50;;;9.40;;
60610;SDS011;46439;51.164;13.572;2023-05-07T00:45:36;11.70;;;9.10;;
60610;SDS011;46439;51.164;13.572;2023-05-07T00:48:05;13.60;;;9.30;;
60610;SDS011;46439;51.164;13.572;2023-05-07T00:50:34;13.70;;;9.40;;
60610;SDS011;46439;51.164;13.572;2023-05-07T00:53:02;12.20;;;9.00;;
60610;SDS011;46439;51.164;13.572;2023-05-07T00:55:32;12.70;;;10.00;;
60610;SDS011;46439;51.164;13.572;2023-05-07T00:58:02;11.70;;;9.30;;
60610;SDS011;46439;51.164;13.572;2023-05-07T01:00:30;14.80;;;9.50;;
60610;SDS011;46439;51.164;13.572;2023-05-07T01:03:00;13.00;;;9.50;;
60610;SDS011;46439;51.164;13.572;2023-05-07T01:05:29;12.30;;;9.50;;
60610;SDS011;46439;51.164;13.572;2023-05-07T01:07:58;13.00;;;9.10;;
60610;SDS011;46439;51.164;13.572;2023-05-07T01:10:27;12.20;;;8.50;;
60610;SDS011;46439;51.164;13.572;2023-05-07T01:15:27;17.20;;;11.90;;
60610;SDS011;46439;51.164;13.572;2023-05-07T01:17:55;12.70;;;9.30;;
60610;SDS011;46439;51.164;13.572;2023-05-07T01:20:24;24.30;;;18.00;;
60610;SDS011;46439;51.164;13.572;2023-05-07T01:22:54;13.20;;;9.50;;
60610;SDS011;46439;51.164;13.572;2023-05-07T01:25:23;13.40;;;10.00;;
60610;SDS011;46439;51.164;13.572;2023-05-07T01:27:52;10.90;;;8.10;;
60610;SDS011;46439;51.164;13.572;2023-05-07T01:30:21;14.50;;;10.90;;
60610;SDS011;46439;51.164;13.572;2023-05-07T01:32:50;13.90;;;10.40;;
60610;SDS011;46439;51.164;13.572;2023-05-07T01:35:26;13.50;;;10.00;;
60610;SDS011;46439;51.164;13.572;2023-05-07T01:37:56;13.90;;;9.60;;
60610;SDS011;46439;51.164;13.572;2023-05-07T01:40:26;14.50;;;9.50;;
60610;SDS011;46439;51.164;13.572;2023-05-07T01:42:55;14.40;;;10.70;;
60610;SDS011;46439;51.164;13.572;2023-05-07T01:45:25;12.10;;;8.80;;
60610;SDS011;46439;51.164;13.572;2023-05-07T01:47:54;15.00;;;10.00;;
60610;SDS011;46439;51.164;13.572;2023-05-07T01:50:24;12.80;;;8.70;;
60610;SDS011;46439;51.164;13.572;2023-05-07T01:52:53;14.00;;;9.90;;
60610;SDS011;46439;51.164;13.572;2023-05-07T01:55:22;14.00;;;9.50;;
60610;SDS011;46439;51.164;13.572;2023-05-07T01:57:50;12.00;;;9.00;;
60610;SDS011;46439;51.164;13.572;2023-05-07T02:00:19;12.60;;;9.20;;
60610;SDS011;46439;51.164;13.572;2023-05-07T02:02:49;14.40;;;10.80;;
60610;SDS011;46439;51.164;13.572;2023-05-07T02:05:19;15.10;;;10.50;;
60610;SDS011;46439;51.164;13.572;2023-05-07T02:07:47;16.70;;;9.80;;
60610;SDS011;46439;51.164;13.572;2023-05-07T02:10:16;14.80;;;10.40;;
60610;SDS011;46439;51.164;13.572;2023-05-07T02:12:44;16.40;;;10.00;;
60610;SDS011;46439;51.164;13.572;2023-05-07T02:15:13;13.70;;;8.80;;
60610;SDS011;46439;51.164;13.572;2023-05-07T02:20:27;14.40;;;10.00;;
60610;SDS011;46439;51.164;13.572;2023-05-07T02:22:55;14.70;;;9.90;;
60610;SDS011;46439;51.164;13.572;2023-05-07T02:25:24;17.00;;;9.40;;
60610;SDS011;46439;51.164;13.572;2023-05-07T02:27:53;14.40;;;10.50;;
60610;SDS011;46439;51.164;13.572;2023-05-07T02:30:21;17.30;;;10.80;;
60610;SDS011;46439;51.164;13.572;2023-05-07T02:32:50;16.10;;;10.50;;
60610;SDS011;46439;51.164;13.572;2023-05-07T02:35:18;16.60;;;10.80;;
60610;SDS011;46439;51.164;13.572;2023-05-07T02:37:47;16.10;;;10.70;;
60610;SDS011;46439;51.164;13.572;2023-05-07T02:40:15;18.30;;;11.10;;
60610;SDS011;46439;51.164;13.572;2023-05-07T02:42:44;17.80;;;12.50;;
60610;SDS011;46439;51.164;13.572;2023-05-07T02:45:13;16.60;;;10.00;;
60610;SDS011;46439;51.164;13.572;2023-05-07T02:47:41;15.20;;;10.90;;
60610;SDS011;46439;51.164;13.572;2023-05-07T02:50:10;17.30;;;10.70;;
60610;SDS011;46439;51.164;13.572;2023-05-07T02:52:39;17.90;;;12.30;;
60610;SDS011;46439;51.164;13.572;2023-05-07T02:55:08;16.20;;;11.80;;
60610;SDS011;46439;51.164;13.572;2023-05-07T02:57:37;17.50;;;10.60;;
60610;SDS011;46439;51.164;13.572;2023-05-07T03:00:13;16.30;;;10.90;;
60610;SDS011;46439;51.164;13.572;2023-05-07T03:02:42;19.20;;;11.80;;
60610;SDS011;46439;51.164;13.572;2023-05-07T03:05:11;16.30;;;10.20;;
60610;SDS011;46439;51.164;13.572;2023-05-07T03:07:40;18.70;;;11.30;;
60610;SDS011;46439;51.164;13.572;2023-05-07T03:10:11;15.70;;;11.00;;
60610;SDS011;46439;51.164;13.572;2023-05-07T03:12:40;19.10;;;11.40;;
60610;SDS011;46439;51.164;13.572;2023-05-07T03:15:10;18.40;;;10.80;;
60610;SDS011;46439;51.164;13.572;2023-05-07T03:17:39;16.70;;;11.60;;
60610;SDS011;46439;51.164;13.572;2023-05-07T03:20:09;13.70;;;9.20;;
60610;SDS011;46439;51.164;13.572;2023-05-07T03:22:38;14.80;;;9.80;;
60610;SDS011;46439;51.164;13.572;2023-05-07T03:25:08;14.50;;;9.40;;
60610;SDS011;46439;51.164;13.572;2023-05-07T03:27:37;14.00;;;9.20;;
60610;SDS011;46439;51.164;13.572;2023-05-07T03:30:06;11.70;;;8.10;;
60610;SDS011;46439;51.164;13.572;2023-05-07T03:32:36;11.20;;;8.70;;
60610;SDS011;46439;51.164;13.572;2023-05-07T03:35:06;13.10;;;8.30;;
60610;SDS011;46439;51.164;13.572;2023-05-07T03:37:34;12.00;;;8.20;;
60610;SDS011;46439;51.164;13.572;2023-05-07T03:40:05;11.60;;;7.50;;
60610;SDS011;46439;51.164;13.572;2023-05-07T03:42:36;10.00;;;7.40;;
60610;SDS011;46439;51.164;13.572;2023-05-07T03:45:06;12.10;;;7.50;;
60610;SDS011;46439;51.164;13.572;2023-05-07T03:47:35;12.20;;;7.70;;
60610;SDS011;46439;51.164;13.572;2023-05-07T03:50:04;12.40;;;7.10;;
60610;SDS011;46439;51.164;13.572;2023-05-07T03:52:33;13.30;;;8.00;;
60610;SDS011;46439;51.164;13.572;2023-05-07T03:55:02;10.00;;;7.00;;
60610;SDS011;46439;51.164;13.572;2023-05-07T03:57:32;9.80;;;6.70;;
60610;SDS011;46439;51.164;13.572;2023-05-07T04:00:01;10.80;;;7.10;;
60610;SDS011;46439;51.164;13.572;2023-05-07T04:02:31;9.90;;;7.00;;
60610;SDS011;46439;51.164;13.572;2023-05-07T04:04:59;10.80;;;7.20;;
60610;SDS011;46439;51.164;13.572;2023-05-07T04:07:28;11.40;;;7.90;;
60610;SDS011;46439;51.164;13.572;2023-05-07T04:09:56;12.40;;;8.20;;
60610;SDS011;46439;51.164;13.572;2023-05-07T04:12:24;15.60;;;11.00;;
60610;SDS011;46439;51.164;13.572;2023-05-07T04:14:53;14.70;;;9.70;;
60610;SDS011;46439;51.164;13.572;2023-05-07T04:17:21;13.10;;;9.90;;
60610;SDS011;46439;51.164;13.572;2023-05-07T04:19:50;14.90;;;11.00;;
60610;SDS011;46439;51.164;13.572;2023-05-07T04:22:18;13.10;;;9.10;;
60610;SDS011;46439;51.164;13.572;2023-05-07T04:24:47;13.20;;;9.60;;
60610;SDS011;46439;51.164;13.572;2023-05-07T04:27:16;14.10;;;9.60;;
60610;SDS011;46439;51.164;13.572;2023-05-07T04:29:44;14.40;;;10.40;;
60610;SDS011;46439;51.164;13.572;2023-05-07T04:32:13;13.90;;;9.70;;
60610;SDS011;46439;51.164;13.572;2023-05-07T04:34:42;14.20;;;10.70;;
60610;SDS011;46439;51.164;13.572;2023-05-07T04:37:10;16.20;;;10.90;;
60610;SDS011;46439;51.164;13.572;2023-05-07T04:39:39;14.60;;;10.20;;
60610;SDS011;46439;51.164;13.572;2023-05-07T04:42:07;15.90;;;11.20;;
60610;SDS011;46439;51.164;13.572;2023-05-07T04:44:36;13.00;;;9.70;;
60610;SDS011;46439;51.164;13.572;2023-05-07T04:47:04;17.00;;;10.80;;
60610;SDS011;46439;51.164;13.572;2023-05-07T04:49:33;13.50;;;9.30;;
60610;SDS011;46439;51.164;13.572;2023-05-07T04:52:02;14.10;;;10.40;;
60610;SDS011;46439;51.164;13.572;2023-05-07T04:54:30;16.20;;;11.00;;
60610;SDS011;46439;51.164;13.572;2023-05-07T04:56:59;15.40;;;11.20;;
60610;SDS011;46439;51.164;13.572;2023-05-07T04:59:29;14.80;;;10.30;;
60610;SDS011;46439;51.164;13.572;2023-05-07T05:01:58;16.30;;;10.40;;
60610;SDS011;46439;51.164;13.572;2023-05-07T05:04:27;16.20;;;10.80;;
60610;SDS011;46439;51.164;13.572;2023-05-07T05:06:56;11.40;;;8.90;;
60610;SDS011;46439;51.164;13.572;2023-05-07T05:09:24;13.10;;;9.00;;
60610;SDS011;46439;51.164;13.572;2023-05-07T05:11:53;12.60;;;9.10;;
60610;SDS011;46439;51.164;13.572;2023-05-07T05:14:22;13.80;;;9.40;;
60610;SDS011;46439;51.164;13.572;2023-05-07T05:16:50;12.80;;;9.10;;
60610;SDS011;46439;51.164;13.572;2023-05-07T05:19:19;12.60;;;9.20;;
60610;SDS011;46439;51.164;13.572;2023-05-07T05:21:47;14.20;;;10.00;;
60610;SDS011;46439;51.164;13.572;2023-05-07T05:24:16;14.30;;;10.20;;
60610;SDS011;46439;51.164;13.572;2023-05-07T05:26:44;13.80;;;9.60;;
60610;SDS011;46439;51.164;13.572;2023-05-07T05:29:13;16.10;;;8.70;;
60610;SDS011;46439;51.164;13.572;2023-05-07T05:31:41;14.70;;;9.70;;
60610;SDS011;46439;51.164;13.572;2023-05-07T05:34:10;12.90;;;9.00;;
60610;SDS011;46439;51.164;13.572;2023-05-07T05:36:38;15.20;;;9.60;;
60610;SDS011;46439;51.164;13.572;2023-05-07T05:39:07;13.20;;;9.10;;
60610;SDS011;46439;51.164;13.572;2023-05-07T05:41:35;12.60;;;9.00;;
60610;SDS011;46439;51.164;13.572;2023-05-07T05:44:04;12.20;;;8.70;;
60610;SDS011;46439;51.164;13.572;2023-05-07T05:46:33;14.00;;;9.10;;
60610;SDS011;46439;51.164;13.572;2023-05-07T05:49:02;13.10;;;9.30;;
60610;SDS011;46439;51.164;13.572;2023-05-07T05:51:30;13.10;;;8.60;;
60610;SDS011;46439;51.164;13.572;2023-05-07T05:53:59;12.40;;;8.70;;
60610;SDS011;46439;51.164;13.572;2023-05-07T05:56:28;12.30;;;8.40;;
60610;SDS011;46439;51.164;13.572;2023-05-07T05:58:56;12.00;;;8.10;;
60610;SDS011;46439;51.164;13.572;2023-05-07T06:01:25;10.10;;;7.50;;
60610;SDS011;46439;51.164;13.572;2023-05-07T06:03:54;13.20;;;8.70;;
60610;SDS011;46439;51.164;13.572;2023-05-07T06:06:23;10.60;;;6.70;;
60610;SDS011;46439;51.164;13.572;2023-05-07T06:08:52;10.80;;;8.00;;
60610;SDS011;46439;51.164;13.572;2023-05-07T06:11:21;10.70;;;7.50;;
60610;SDS011;46439;51.164;13.572;2023-05-07T06:13:49;10.00;;;7.40;;
60610;SDS011;46439;51.164;13.572;2023-05-07T06:16:18;11.30;;;7.40;;
60610;SDS011;46439;51.164;13.572;2023-05-07T06:18:46;10.70;;;7.30;;
60610;SDS011;46439;51.164;13.572;2023-05-07T06:21:15;11.00;;;7.20;;
60610;SDS011;46439;51.164;13.572;2023-05-07T06:23:44;10.80;;;6.90;;
60610;SDS011;46439;51.164;13.572;2023-05-07T06:26:12;10.60;;;5.70;;
60610;SDS011;46439;51.164;13.572;2023-05-07T06:28:41;9.40;;;6.60;;
60610;SDS011;46439;51.164;13.572;2023-05-07T06:31:13;9.10;;;6.70;;
60610;SDS011;46439;51.164;13.572;2023-05-07T06:33:42;9.60;;;5.60;;
60610;SDS011;46439;51.164;13.572;2023-05-07T06:36:11;9.50;;;6.10;;
60610;SDS011;46439;51.164;13.572;2023-05-07T06:38:40;8.10;;;6.10;;
60610;SDS011;46439;51.164;13.572;2023-05-07T06:41:09;8.30;;;6.00;;
60610;SDS011;46439;51.164;13.572;2023-05-07T06:43:37;7.10;;;5.20;;
60610;SDS011;46439;51.164;13.572;2023-05-07T06:46:06;7.60;;;5.40;;
60610;SDS011;46439;51.164;13.572;2023-05-07T06:48:35;7.10;;;5.30;;
60610;SDS011;46439;51.164;13.572;2023-05-07T06:51:05;7.90;;;5.60;;
60610;SDS011;46439;51.164;13.572;2023-05-07T06:53:34;8.30;;;5.00;;
60610;SDS011;46439;51.164;13.572;2023-05-07T06:56:03;8.20;;;5.70;;
60610;SDS011;46439;51.164;13.572;2023-05-07T06:58:32;8.90;;;5.30;;
60610;SDS011;46439;51.164;13.572;2023-05-07T07:01:01;10.50;;;5.10;;
60610;SDS011;46439;51.164;13.572;2023-05-07T07:03:30;8.20;;;5.50;;
60610;SDS011;46439;51.164;13.572;2023-05-07T07:05:58;7.40;;;5.20;;
60610;SDS011;46439;51.164;13.572;2023-05-07T07:08:28;8.10;;;5.00;;
60610;SDS011;46439;51.164;13.572;2023-05-07T07:10:57;9.20;;;5.10;;
60610;SDS011;46439;51.164;13.572;2023-05-07T07:13:25;7.30;;;4.90;;
60610;SDS011;46439;51.164;13.572;2023-05-07T07:15:54;7.00;;;4.70;;
60610;SDS011;46439;51.164;13.572;2023-05-07T07:18:23;7.60;;;5.10;;
60610;SDS011;46439;51.164;13.572;2023-05-07T07:20:52;6.50;;;4.60;;
60610;SDS011;46439;51.164;13.572;2023-05-07T07:23:20;5.70;;;4.30;;
60610;SDS011;46439;51.164;13.572;2023-05-07T07:25:50;5.40;;;4.30;;
60610;SDS011;46439;51.164;13.572;2023-05-07T07:28:20;5.60;;;4.10;;
60610;SDS011;46439;51.164;13.572;2023-05-07T07:30:49;7.00;;;4.10;;
60610;SDS011;46439;51.164;13.572;2023-05-07T07:33:17;5.50;;;4.00;;
60610;SDS011;46439;51.164;13.572;2023-05-07T07:35:46;5.20;;;3.40;;
60610;SDS011;46439;51.164;13.572;2023-05-07T07:38:15;4.80;;;3.30;;
60610;SDS011;46439;51.164;13.572;2023-05-07T07:40:43;5.70;;;3.20;;
60610;SDS011;46439;51.164;13.572;2023-05-07T07:43:14;4.70;;;3.50;;
60610;SDS011;46439;51.164;13.572;2023-05-07T07:45:42;4.20;;;3.20;;
60610;SDS011;46439;51.164;13.572;2023-05-07T07:48:12;4.70;;;3.20;;
60610;SDS011;46439;51.164;13.572;2023-05-07T07:50:41;4.10;;;3.20;;
60610;SDS011;46439;51.164;13.572;2023-05-07T07:53:09;3.90;;;2.90;;
60610;SDS011;46439;51.164;13.572;2023-05-07T07:55:39;4.60;;;3.10;;
60610;SDS011;46439;51.164;13.572;2023-05-07T07:58:08;4.10;;;3.00;;
60610;SDS011;46439;51.164;13.572;2023-05-07T08:00:37;4.40;;;3.10;;
60610;SDS011;46439;51.164;13.572;2023-05-07T08:03:05;4.80;;;3.40;;
60610;SDS011;46439;51.164;13.572;2023-05-07T08:05:35;4.30;;;3.20;;
60610;SDS011;46439;51.164;13.572;2023-05-07T08:08:05;4.20;;;3.10;;
60610;SDS011;46439;51.164;13.572;2023-05-07T08:10:34;3.80;;;2.80;;
60610;SDS011;46439;51.164;13.572;2023-05-07T08:13:05;5.30;;;3.40;;
60610;SDS011;46439;51.164;13.572;2023-05-07T08:15:33;4.40;;;2.90;;
60610;SDS011;46439;51.164;13.572;2023-05-07T08:18:02;3.30;;;2.80;;
60610;SDS011;46439;51.164;13.572;2023-05-07T08:20:31;2.90;;;2.30;;
60610;SDS011;46439;51.164;13.572;2023-05-07T08:23:05;4.10;;;3.00;;
60610;SDS011;46439;51.164;13.572;2023-05-07T08:25:35;4.10;;;2.90;;
60610;SDS011;46439;51.164;13.572;2023-05-07T08:28:04;4.20;;;3.10;;
60610;SDS011;46439;51.164;13.572;2023-05-07T08:30:33;4.50;;;2.90;;
60610;SDS011;46439;51.164;13.572;2023-05-07T08:33:04;5.20;;;3.30;;
60610;SDS011;46439;51.164;13.572;2023-05-07T08:35:32;4.30;;;3.10;;
60610;SDS011;46439;51.164;13.572;2023-05-07T08:38:01;4.10;;;3.30;;
60610;SDS011;46439;51.164;13.572;2023-05-07T08:40:30;4.30;;;3.40;;
60610;SDS011;46439;51.164;13.572;2023-05-07T08:43:04;4.50;;;3.40;;
60610;SDS011;46439;51.164;13.572;2023-05-07T08:45:34;9.20;;;3.30;;
60610;SDS011;46439;51.164;13.572;2023-05-07T08:48:08;4.70;;;3.30;;
60610;SDS011;46439;51.164;13.572;2023-05-07T08:50:42;4.80;;;3.60;;
60610;SDS011;46439;51.164;13.572;2023-05-07T08:53:11;5.00;;;3.70;;
60610;SDS011;46439;51.164;13.572;2023-05-07T08:55:42;4.80;;;3.70;;
60610;SDS011;46439;51.164;13.572;2023-05-07T08:58:11;5.70;;;3.70;;
60610;SDS011;46439;51.164;13.572;2023-05-07T09:00:40;5.30;;;3.60;;
60610;SDS011;46439;51.164;13.572;2023-05-07T09:03:10;5.60;;;4.30;;
60610;SDS011;46439;51.164;13.572;2023-05-07T09:05:40;6.20;;;4.80;;
60610;SDS011;46439;51.164;13.572;2023-05-07T09:08:14;5.90;;;4.30;;
60610;SDS011;46439;51.164;13.572;2023-05-07T09:10:43;7.10;;;5.10;;
60610;SDS011;46439;51.164;13.572;2023-05-07T09:13:14;7.60;;;4.90;;
60610;SDS011;46439;51.164;13.572;2023-05-07T09:15:44;6.80;;;5.10;;
60610;SDS011;46439;51.164;13.572;2023-05-07T09:18:13;7.20;;;4.70;;
60610;SDS011;46439;51.164;13.572;2023-05-07T09:20:42;6.00;;;4.90;;
60610;SDS011;46439;51.164;13.572;2023-05-07T09:23:11;5.60;;;4.10;;
60610;SDS011;46439;51.164;13.572;2023-05-07T09:28:27;7.20;;;5.10;;
60610;SDS011;46439;51.164;13.572;2023-05-07T09:30:55;8.50;;;5.30;;
60610;SDS011;46439;51.164;13.572;2023-05-07T09:33:26;7.80;;;4.90;;
60610;SDS011;46439;51.164;13.572;2023-05-07T09:35:56;8.10;;;5.20;;
60610;SDS011;46439;51.164;13.572;2023-05-07T09:38:25;9.50;;;5.70;;
60610;SDS011;46439;51.164;13.572;2023-05-07T09:41:03;7.20;;;4.70;;
60610;SDS011;46439;51.164;13.572;2023-05-07T09:43:33;7.90;;;4.90;;
60610;SDS011;46439;51.164;13.572;2023-05-07T09:46:05;7.00;;;5.00;;
60610;SDS011;46439;51.164;13.572;2023-05-07T09:48:37;8.50;;;5.00;;
60610;SDS011;46439;51.164;13.572;2023-05-07T09:51:09;6.30;;;4.90;;
60610;SDS011;46439;51.164;13.572;2023-05-07T09:53:43;12.80;;;5.20;;
60610;SDS011;46439;51.164;13.572;2023-05-07T09:56:14;7.90;;;5.00;;
60610;SDS011;46439;51.164;13.572;2023-05-07T09:58:44;6.80;;;4.80;;
60610;SDS011;46439;51.164;13.572;2023-05-07T10:01:13;7.70;;;5.10;;
60610;SDS011;46439;51.164;13.572;2023-05-07T10:03:43;6.50;;;4.70;;
60610;SDS011;46439;51.164;13.572;2023-05-07T10:06:13;6.80;;;4.50;;
60610;SDS011;46439;51.164;13.572;2023-05-07T10:08:43;6.60;;;4.70;;
60610;SDS011;46439;51.164;13.572;2023-05-07T10:11:12;7.70;;;5.00;;
60610;SDS011;46439;51.164;13.572;2023-05-07T10:13:43;6.10;;;4.40;;
60610;SDS011;46439;51.164;13.572;2023-05-07T10:16:13;7.50;;;4.90;;
60610;SDS011;46439;51.164;13.572;2023-05-07T10:18:42;6.20;;;4.70;;
60610;SDS011;46439;51.164;13.572;2023-05-07T10:21:14;6.50;;;5.00;;
60610;SDS011;46439;51.164;13.572;2023-05-07T10:23:48;7.00;;;5.00;;
60610;SDS011;46439;51.164;13.572;2023-05-07T10:26:18;8.20;;;4.90;;
60610;SDS011;46439;51.164;13.572;2023-05-07T10:28:51;8.10;;;5.20;;
60610;SDS011;46439;51.164;13.572;2023-05-07T10:31:29;7.10;;;5.00;;
60610;SDS011;46439;51.164;13.572;2023-05-07T10:34:12;7.70;;;5.60;;
60610;SDS011;46439;51.164;13.572;2023-05-07T10:36:45;9.10;;;6.50;;
60610;SDS011;46439;51.164;13.572;2023-05-07T10:39:15;14.60;;;8.70;;
60610;SDS011;46439;51.164;13.572;2023-05-07T10:41:44;7.70;;;5.60;;
60610;SDS011;46439;51.164;13.572;2023-05-07T10:44:13;9.70;;;6.10;;
60610;SDS011;46439;51.164;13.572;2023-05-07T10:47:05;6.00;;;4.90;;
60610;SDS011;46439;51.164;13.572;2023-05-07T10:49:36;6.70;;;5.00;;
60610;SDS011;46439;51.164;13.572;2023-05-07T10:52:25;7.40;;;5.20;;
60610;SDS011;46439;51.164;13.572;2023-05-07T10:57:51;6.80;;;4.80;;
60610;SDS011;46439;51.164;13.572;2023-05-07T11:03:10;5.60;;;4.40;;
60610;SDS011;46439;51.164;13.572;2023-05-07T11:05:39;7.10;;;4.80;;
60610;SDS011;46439;51.164;13.572;2023-05-07T11:08:09;6.10;;;4.60;;
60610;SDS011;46439;51.164;13.572;2023-05-07T11:10:50;7.30;;;5.50;;
60610;SDS011;46439;51.164;13.572;2023-05-07T11:16:17;9.00;;;5.10;;
60610;SDS011;46439;51.164;13.572;2023-05-07T11:18:47;8.40;;;4.90;;
60610;SDS011;46439;51.164;13.572;2023-05-07T11:24:07;6.60;;;5.00;;
60610;SDS011;46439;51.164;13.572;2023-05-07T11:26:44;7.10;;;4.50;;
60610;SDS011;46439;51.164;13.572;2023-05-07T11:29:15;8.40;;;4.30;;
60610;SDS011;46439;51.164;13.572;2023-05-07T11:31:49;7.50;;;4.60;;
60610;SDS011;46439;51.164;13.572;2023-05-07T11:34:22;5.90;;;4.60;;
60610;SDS011;46439;51.164;13.572;2023-05-07T11:36:51;7.60;;;5.20;;
60610;SDS011;46439;51.164;13.572;2023-05-07T11:39:26;7.20;;;4.40;;
60610;SDS011;46439;51.164;13.572;2023-05-07T11:41:58;6.50;;;4.30;;
60610;SDS011;46439;51.164;13.572;2023-05-07T11:44:27;6.20;;;4.50;;
60610;SDS011;46439;51.164;13.572;2023-05-07T11:47:11;6.20;;;4.20;;
60610;SDS011;46439;51.164;13.572;2023-05-07T11:49:45;5.80;;;4.40;;
60610;SDS011;46439;51.164;13.572;2023-05-07T11:52:15;5.70;;;4.20;;
60610;SDS011;46439;51.164;13.572;2023-05-07T11:54:49;5.60;;;4.00;;
60610;SDS011;46439;51.164;13.572;2023-05-07T11:57:19;7.10;;;3.90;;
60610;SDS011;46439;51.164;13.572;2023-05-07T11:59:48;5.50;;;4.00;;
60610;SDS011;46439;51.164;13.572;2023-05-07T12:02:21;6.30;;;4.00;;
60610;SDS011;46439;51.164;13.572;2023-05-07T12:04:51;5.00;;;4.20;;
60610;SDS011;46439;51.164;13.572;2023-05-07T12:07:20;5.10;;;4.10;;
60610;SDS011;46439;51.164;13.572;2023-05-07T12:09:50;5.70;;;3.90;;
60610;SDS011;46439;51.164;13.572;2023-05-07T12:12:20;4.80;;;3.70;;
60610;SDS011;46439;51.164;13.572;2023-05-07T12:14:48;4.50;;;3.50;;
60610;SDS011;46439;51.164;13.572;2023-05-07T12:17:18;3.90;;;3.40;;
60610;SDS011;46439;51.164;13.572;2023-05-07T12:19:48;5.10;;;3.60;;
60610;SDS011;46439;51.164;13.572;2023-05-07T12:22:20;4.90;;;3.30;;
60610;SDS011;46439;51.164;13.572;2023-05-07T12:24:49;4.90;;;3.70;;
60610;SDS011;46439;51.164;13.572;2023-05-07T12:27:24;4.70;;;3.80;;
60610;SDS011;46439;51.164;13.572;2023-05-07T12:29:52;4.90;;;3.90;;
60610;SDS011;46439;51.164;13.572;2023-05-07T12:32:23;7.00;;;4.40;;
60610;SDS011;46439;51.164;13.572;2023-05-07T12:34:52;4.80;;;3.80;;
60610;SDS011;46439;51.164;13.572;2023-05-07T12:37:24;6.90;;;4.30;;
60610;SDS011;46439;51.164;13.572;2023-05-07T12:40:05;6.90;;;3.70;;
60610;SDS011;46439;51.164;13.572;2023-05-07T12:42:36;5.80;;;4.10;;
60610;SDS011;46439;51.164;13.572;2023-05-07T12:45:10;5.10;;;4.10;;
60610;SDS011;46439;51.164;13.572;2023-05-07T12:47:44;4.70;;;3.90;;
60610;SDS011;46439;51.164;13.572;2023-05-07T12:50:13;5.90;;;3.60;;
60610;SDS011;46439;51.164;13.572;2023-05-07T12:52:42;5.80;;;3.60;;
60610;SDS011;46439;51.164;13.572;2023-05-07T12:55:15;6.10;;;4.00;;
60610;SDS011;46439;51.164;13.572;2023-05-07T12:57:45;5.20;;;3.70;;
60610;SDS011;46439;51.164;13.572;2023-05-07T13:00:19;4.20;;;3.70;;
60610;SDS011;46439;51.164;13.572;2023-05-07T13:03:01;4.20;;;3.70;;
60610;SDS011;46439;51.164;13.572;2023-05-07T13:05:30;5.00;;;4.00;;
60610;SDS011;46439;51.164;13.572;2023-05-07T13:07:59;5.00;;;3.90;;
60610;SDS011;46439;51.164;13.572;2023-05-07T13:10:27;4.30;;;3.60;;
60610;SDS011;46439;51.164;13.572;2023-05-07T13:12:56;6.00;;;4.20;;
60610;SDS011;46439;51.164;13.572;2023-05-07T13:15:25;4.90;;;4.10;;
60610;SDS011;46439;51.164;13.572;2023-05-07T13:17:53;5.50;;;4.10;;
60610;SDS011;46439;51.164;13.572;2023-05-07T13:20:22;5.90;;;3.50;;
60610;SDS011;46439;51.164;13.572;2023-05-07T13:22:51;4.80;;;3.80;;
60610;SDS011;46439;51.164;13.572;2023-05-07T13:25:20;4.20;;;3.50;;
60610;SDS011;46439;51.164;13.572;2023-05-07T13:27:48;4.20;;;3.60;;
60610;SDS011;46439;51.164;13.572;2023-05-07T13:30:17;7.40;;;5.00;;
60610;SDS011;46439;51.164;13.572;2023-05-07T13:32:47;4.50;;;3.80;;
60610;SDS011;46439;51.164;13.572;2023-05-07T13:35:16;7.80;;;4.90;;
60610;SDS011;46439;51.164;13.572;2023-05-07T13:37:45;5.00;;;3.60;;
60610;SDS011;46439;51.164;13.572;2023-05-07T13:40:15;3.90;;;3.20;;
60610;SDS011;46439;51.164;13.572;2023-05-07T13:42:44;3.80;;;3.30;;
60610;SDS011;46439;51.164;13.572;2023-05-07T13:45:13;5.30;;;3.30;;
60610;SDS011;46439;51.164;13.572;2023-05-07T13:47:41;3.90;;;3.20;;
60610;SDS011;46439;51.164;13.572;2023-05-07T13:50:12;4.90;;;3.40;;
60610;SDS011;46439;51.164;13.572;2023-05-07T13:52:42;5.80;;;3.30;;
60610;SDS011;46439;51.164;13.572;2023-05-07T13:55:18;4.90;;;3.90;;
60610;SDS011;46439;51.164;13.572;2023-05-07T13:57:53;4.80;;;3.30;;
60610;SDS011;46439;51.164;13.572;2023-05-07T14:00:24;4.90;;;3.20;;
60610;SDS011;46439;51.164;13.572;2023-05-07T14:02:54;4.50;;;3.50;;
60610;SDS011;46439;51.164;13.572;2023-05-07T14:05:24;4.60;;;4.00;;
60610;SDS011;46439;51.164;13.572;2023-05-07T14:07:56;3.80;;;3.30;;
60610;SDS011;46439;51.164;13.572;2023-05-07T14:10:25;4.10;;;3.70;;
60610;SDS011;46439;51.164;13.572;2023-05-07T14:12:54;4.80;;;3.60;;
60610;SDS011;46439;51.164;13.572;2023-05-07T14:15:23;4.20;;;3.10;;
60610;SDS011;46439;51.164;13.572;2023-05-07T14:17:51;6.20;;;3.60;;
60610;SDS011;46439;51.164;13.572;2023-05-07T14:20:20;4.70;;;3.70;;
60610;SDS011;46439;51.164;13.572;2023-05-07T14:22:49;4.30;;;3.50;;
60610;SDS011;46439;51.164;13.572;2023-05-07T14:25:18;5.40;;;3.50;;
60610;SDS011;46439;51.164;13.572;2023-05-07T14:27:46;4.00;;;3.60;;
60610;SDS011;46439;51.164;13.572;2023-05-07T14:30:15;5.10;;;3.50;;
60610;SDS011;46439;51.164;13.572;2023-05-07T14:32:43;4.50;;;3.20;;
60610;SDS011;46439;51.164;13.572;2023-05-07T14:35:12;3.30;;;3.00;;
60610;SDS011;46439;51.164;13.572;2023-05-07T14:37:41;5.10;;;4.00;;
60610;SDS011;46439;51.164;13.572;2023-05-07T14:40:11;3.90;;;3.30;;
60610;SDS011;46439;51.164;13.572;2023-05-07T14:42:41;4.20;;;3.50;;
60610;SDS011;46439;51.164;13.572;2023-05-07T14:45:10;4.00;;;3.40;;
60610;SDS011;46439;51.164;13.572;2023-05-07T14:47:40;3.90;;;2.90;;
60610;SDS011;46439;51.164;13.572;2023-05-07T14:50:10;3.80;;;2.70;;
60610;SDS011;46439;51.164;13.572;2023-05-07T14:52:38;3.80;;;3.00;;
60610;SDS011;46439;51.164;13.572;2023-05-07T14:55:08;5.30;;;3.70;;
60610;SDS011;46439;51.164;13.572;2023-05-07T14:57:36;4.80;;;3.60;;
60610;SDS011;46439;51.164;13.572;2023-05-07T15:00:06;4.70;;;3.80;;